sensor_id;sensor_type;location;lat;lon;timestamp;P1;durP1;ratioP1;P2;durP2;ratioP2
35150;SDS011;55720;51.972;4.624;2022-10-31T00:02:20;3.70;;;2.30;;
35150;SDS011;55720;51.972;4.624;2022-10-31T00:04:45;5.38;;;2.33;;
35150;SDS011;55720;51.972;4.624;2022-10-31T00:07:10;4.78;;;2.40;;
35150;SDS011;55720;51.972;4.624;2022-10-31T00:09:36;2.63;;;2.30;;
35150;SDS011;55720;51.972;4.624;2022-10-31T00:12:01;4.38;;;2.47;;
35150;SDS011;55720;51.972;4.624;2022-10-31T00:14:26;4.72;;;2.60;;
35150;SDS011;55720;51.972;4.624;2022-10-31T00:16:52;5.28;;;2.50;;
35150;SDS011;55720;51.972;4.624;2022-10-31T00:19:17;5.35;;;2.72;;
35150;SDS011;55720;51.972;4.624;2022-10-31T00:21:42;5.47;;;2.75;;
35150;SDS011;55720;51.972;4.624;2022-10-31T00:24:08;5.88;;;2.50;;
35150;SDS011;55720;51.972;4.624;2022-10-31T00:26:33;7.05;;;2.55;;
35150;SDS011;55720;51.972;4.624;2022-10-31T00:28:59;4.40;;;2.78;;
35150;SDS011;55720;51.972;4.624;2022-10-31T00:31:25;6.68;;;2.83;;
35150;SDS011;55720;51.972;4.624;2022-10-31T00:33:50;5.22;;;3.15;;
35150;SDS011;55720;51.972;4.624;2022-10-31T00:36:17;6.70;;;3.03;;
35150;SDS011;55720;51.972;4.624;2022-10-31T00:38:43;8.18;;;3.10;;
35150;SDS011;55720;51.972;4.624;2022-10-31T00:41:10;5.22;;;3.15;;
35150;SDS011;55720;51.972;4.624;2022-10-31T00:43:36;4.63;;;3.60;;
35150;SDS011;55720;51.972;4.624;2022-10-31T00:46:01;6.15;;;3.40;;
35150;SDS011;55720;51.972;4.624;2022-10-31T00:48:27;7.38;;;3.25;;
35150;SDS011;55720;51.972;4.624;2022-10-31T00:50:53;8.32;;;3.45;;
35150;SDS011;55720;51.972;4.624;2022-10-31T00:53:18;8.02;;;3.40;;
35150;SDS011;55720;51.972;4.624;2022-10-31T00:55:44;5.75;;;3.13;;
35150;SDS011;55720;51.972;4.624;2022-10-31T00:58:09;6.80;;;3.83;;
35150;SDS011;55720;51.972;4.624;2022-10-31T01:00:34;5.90;;;3.70;;
35150;SDS011;55720;51.972;4.624;2022-10-31T01:03:00;4.07;;;3.25;;
35150;SDS011;55720;51.972;4.624;2022-10-31T01:05:25;4.65;;;3.10;;
35150;SDS011;55720;51.972;4.624;2022-10-31T01:07:51;5.82;;;3.70;;
35150;SDS011;55720;51.972;4.624;2022-10-31T01:10:16;9.27;;;3.80;;
35150;SDS011;55720;51.972;4.624;2022-10-31T01:12:44;5.60;;;3.22;;
35150;SDS011;55720;51.972;4.624;2022-10-31T01:15:11;4.03;;;2.90;;
35150;SDS011;55720;51.972;4.624;2022-10-31T01:17:38;7.90;;;3.40;;
35150;SDS011;55720;51.972;4.624;2022-10-31T01:20:03;7.57;;;3.17;;
35150;SDS011;55720;51.972;4.624;2022-10-31T01:22:29;4.07;;;3.63;;
35150;SDS011;55720;51.972;4.624;2022-10-31T01:24:55;5.95;;;3.40;;
35150;SDS011;55720;51.972;4.624;2022-10-31T01:27:20;5.20;;;3.50;;
35150;SDS011;55720;51.972;4.624;2022-10-31T01:29:46;5.80;;;3.45;;
35150;SDS011;55720;51.972;4.624;2022-10-31T01:32:11;5.68;;;3.55;;
35150;SDS011;55720;51.972;4.624;2022-10-31T01:34:36;4.30;;;3.22;;
35150;SDS011;55720;51.972;4.624;2022-10-31T01:37:02;4.22;;;3.20;;
35150;SDS011;55720;51.972;4.624;2022-10-31T01:39:27;4.05;;;3.45;;
35150;SDS011;55720;51.972;4.624;2022-10-31T01:41:52;5.47;;;3.15;;
35150;SDS011;55720;51.972;4.624;2022-10-31T01:46:52;7.22;;;3.88;;
35150;SDS011;55720;51.972;4.624;2022-10-31T01:54:59;7.05;;;3.72;;
35150;SDS011;55720;51.972;4.624;2022-10-31T01:57:31;4.83;;;3.57;;
35150;SDS011;55720;51.972;4.624;2022-10-31T02:00:00;8.82;;;4.13;;
35150;SDS011;55720;51.972;4.624;2022-10-31T02:02:30;7.53;;;4.30;;
35150;SDS011;55720;51.972;4.624;2022-10-31T02:04:56;8.63;;;4.00;;
35150;SDS011;55720;51.972;4.624;2022-10-31T02:07:30;8.40;;;5.03;;
35150;SDS011;55720;51.972;4.624;2022-10-31T02:10:02;7.15;;;4.45;;
35150;SDS011;55720;51.972;4.624;2022-10-31T02:12:29;11.60;;;4.80;;
35150;SDS011;55720;51.972;4.624;2022-10-31T02:14:56;13.30;;;5.10;;
35150;SDS011;55720;51.972;4.624;2022-10-31T02:17:23;10.27;;;5.75;;
35150;SDS011;55720;51.972;4.624;2022-10-31T02:19:52;9.20;;;6.30;;
35150;SDS011;55720;51.972;4.624;2022-10-31T02:34:02;9.98;;;6.25;;
35150;SDS011;55720;51.972;4.624;2022-10-31T02:36:53;8.77;;;5.47;;
35150;SDS011;55720;51.972;4.624;2022-10-31T02:42:11;12.82;;;6.53;;
35150;SDS011;55720;51.972;4.624;2022-10-31T02:44:59;13.88;;;6.78;;
35150;SDS011;55720;51.972;4.624;2022-10-31T02:47:34;9.93;;;6.35;;
35150;SDS011;55720;51.972;4.624;2022-10-31T02:52:33;16.23;;;8.27;;
35150;SDS011;55720;51.972;4.624;2022-10-31T02:57:50;13.52;;;8.15;;
35150;SDS011;55720;51.972;4.624;2022-10-31T03:00:19;14.02;;;8.23;;
35150;SDS011;55720;51.972;4.624;2022-10-31T03:11:16;15.95;;;9.60;;
35150;SDS011;55720;51.972;4.624;2022-10-31T03:16:23;17.48;;;9.57;;
35150;SDS011;55720;51.972;4.624;2022-10-31T03:19:08;16.52;;;10.65;;
35150;SDS011;55720;51.972;4.624;2022-10-31T03:24:11;22.30;;;11.95;;
35150;SDS011;55720;51.972;4.624;2022-10-31T03:26:40;24.58;;;13.82;;
35150;SDS011;55720;51.972;4.624;2022-10-31T03:29:10;32.88;;;14.07;;
35150;SDS011;55720;51.972;4.624;2022-10-31T03:31:53;30.05;;;14.13;;
35150;SDS011;55720;51.972;4.624;2022-10-31T03:34:22;31.13;;;14.45;;
35150;SDS011;55720;51.972;4.624;2022-10-31T03:36:48;27.77;;;15.73;;
35150;SDS011;55720;51.972;4.624;2022-10-31T03:39:17;34.13;;;14.57;;
35150;SDS011;55720;51.972;4.624;2022-10-31T03:41:49;32.90;;;16.10;;
35150;SDS011;55720;51.972;4.624;2022-10-31T03:44:21;32.28;;;15.70;;
35150;SDS011;55720;51.972;4.624;2022-10-31T03:46:48;37.42;;;15.73;;
35150;SDS011;55720;51.972;4.624;2022-10-31T03:49:14;34.03;;;17.48;;
35150;SDS011;55720;51.972;4.624;2022-10-31T03:54:13;33.17;;;16.60;;
35150;SDS011;55720;51.972;4.624;2022-10-31T03:56:49;47.03;;;18.60;;
35150;SDS011;55720;51.972;4.624;2022-10-31T03:59:19;37.97;;;17.73;;
35150;SDS011;55720;51.972;4.624;2022-10-31T04:01:51;36.60;;;17.55;;
35150;SDS011;55720;51.972;4.624;2022-10-31T04:04:20;27.17;;;12.40;;
35150;SDS011;55720;51.972;4.624;2022-10-31T04:06:46;42.83;;;17.73;;
35150;SDS011;55720;51.972;4.624;2022-10-31T04:09:13;35.22;;;17.15;;
35150;SDS011;55720;51.972;4.624;2022-10-31T04:11:47;42.17;;;19.60;;
35150;SDS011;55720;51.972;4.624;2022-10-31T04:14:15;40.92;;;19.13;;
35150;SDS011;55720;51.972;4.624;2022-10-31T04:16:41;45.85;;;18.83;;
35150;SDS011;55720;51.972;4.624;2022-10-31T04:19:08;43.25;;;18.67;;
35150;SDS011;55720;51.972;4.624;2022-10-31T04:21:35;43.67;;;19.10;;
35150;SDS011;55720;51.972;4.624;2022-10-31T04:24:00;40.92;;;18.58;;
35150;SDS011;55720;51.972;4.624;2022-10-31T04:26:25;39.45;;;16.52;;
35150;SDS011;55720;51.972;4.624;2022-10-31T04:28:51;37.50;;;17.63;;
35150;SDS011;55720;51.972;4.624;2022-10-31T04:31:16;40.58;;;17.50;;
35150;SDS011;55720;51.972;4.624;2022-10-31T04:33:42;30.83;;;16.13;;
35150;SDS011;55720;51.972;4.624;2022-10-31T04:36:07;35.60;;;15.80;;
35150;SDS011;55720;51.972;4.624;2022-10-31T04:38:33;34.10;;;16.75;;
35150;SDS011;55720;51.972;4.624;2022-10-31T04:40:58;38.67;;;15.38;;
35150;SDS011;55720;51.972;4.624;2022-10-31T04:43:24;34.72;;;16.38;;
35150;SDS011;55720;51.972;4.624;2022-10-31T04:45:49;37.20;;;16.73;;
35150;SDS011;55720;51.972;4.624;2022-10-31T04:48:14;40.72;;;16.00;;
35150;SDS011;55720;51.972;4.624;2022-10-31T04:50:40;31.65;;;15.93;;
35150;SDS011;55720;51.972;4.624;2022-10-31T04:53:05;35.92;;;16.35;;
35150;SDS011;55720;51.972;4.624;2022-10-31T04:55:31;32.35;;;15.73;;
35150;SDS011;55720;51.972;4.624;2022-10-31T04:57:56;40.95;;;17.42;;
35150;SDS011;55720;51.972;4.624;2022-10-31T05:00:22;44.90;;;18.15;;
35150;SDS011;55720;51.972;4.624;2022-10-31T05:05:21;41.90;;;18.52;;
35150;SDS011;55720;51.972;4.624;2022-10-31T05:07:49;46.72;;;20.27;;
35150;SDS011;55720;51.972;4.624;2022-10-31T05:10:16;50.38;;;22.33;;
35150;SDS011;55720;51.972;4.624;2022-10-31T05:12:48;44.72;;;21.38;;
35150;SDS011;55720;51.972;4.624;2022-10-31T05:15:15;41.25;;;20.98;;
35150;SDS011;55720;51.972;4.624;2022-10-31T05:17:42;43.90;;;22.10;;
35150;SDS011;55720;51.972;4.624;2022-10-31T05:20:08;46.67;;;21.13;;
35150;SDS011;55720;51.972;4.624;2022-10-31T05:22:35;54.53;;;21.75;;
35150;SDS011;55720;51.972;4.624;2022-10-31T05:25:00;44.88;;;21.35;;
35150;SDS011;55720;51.972;4.624;2022-10-31T05:27:26;52.53;;;22.48;;
35150;SDS011;55720;51.972;4.624;2022-10-31T05:29:51;50.30;;;21.23;;
35150;SDS011;55720;51.972;4.624;2022-10-31T05:32:16;48.50;;;21.73;;
35150;SDS011;55720;51.972;4.624;2022-10-31T05:34:42;43.42;;;21.23;;
35150;SDS011;55720;51.972;4.624;2022-10-31T05:37:07;47.30;;;20.83;;
35150;SDS011;55720;51.972;4.624;2022-10-31T05:39:32;49.53;;;22.50;;
35150;SDS011;55720;51.972;4.624;2022-10-31T05:41:58;48.53;;;22.23;;
35150;SDS011;55720;51.972;4.624;2022-10-31T05:44:23;48.30;;;21.13;;
35150;SDS011;55720;51.972;4.624;2022-10-31T05:46:48;44.38;;;20.95;;
35150;SDS011;55720;51.972;4.624;2022-10-31T05:49:14;45.55;;;20.88;;
35150;SDS011;55720;51.972;4.624;2022-10-31T05:51:39;39.78;;;18.90;;
35150;SDS011;55720;51.972;4.624;2022-10-31T05:54:05;39.97;;;19.50;;
35150;SDS011;55720;51.972;4.624;2022-10-31T05:56:30;36.13;;;17.52;;
35150;SDS011;55720;51.972;4.624;2022-10-31T05:58:55;37.10;;;17.25;;
35150;SDS011;55720;51.972;4.624;2022-10-31T06:01:21;36.05;;;17.52;;
35150;SDS011;55720;51.972;4.624;2022-10-31T06:03:46;33.85;;;16.13;;
35150;SDS011;55720;51.972;4.624;2022-10-31T06:06:11;39.65;;;16.90;;
35150;SDS011;55720;51.972;4.624;2022-10-31T06:08:37;43.75;;;19.40;;
35150;SDS011;55720;51.972;4.624;2022-10-31T06:11:02;49.47;;;19.52;;
35150;SDS011;55720;51.972;4.624;2022-10-31T06:13:28;50.47;;;18.67;;
35150;SDS011;55720;51.972;4.624;2022-10-31T06:15:53;150.45;;;23.42;;
35150;SDS011;55720;51.972;4.624;2022-10-31T06:18:18;40.97;;;17.55;;
35150;SDS011;55720;51.972;4.624;2022-10-31T06:20:44;86.18;;;19.10;;
35150;SDS011;55720;51.972;4.624;2022-10-31T06:23:09;81.20;;;20.45;;
35150;SDS011;55720;51.972;4.624;2022-10-31T06:25:34;87.75;;;20.48;;
35150;SDS011;55720;51.972;4.624;2022-10-31T06:28:00;88.28;;;21.00;;
35150;SDS011;55720;51.972;4.624;2022-10-31T06:30:25;74.97;;;19.25;;
35150;SDS011;55720;51.972;4.624;2022-10-31T06:32:51;74.43;;;20.00;;
35150;SDS011;55720;51.972;4.624;2022-10-31T06:35:17;80.40;;;19.65;;
35150;SDS011;55720;51.972;4.624;2022-10-31T06:37:42;88.97;;;20.63;;
35150;SDS011;55720;51.972;4.624;2022-10-31T06:40:08;92.10;;;20.85;;
35150;SDS011;55720;51.972;4.624;2022-10-31T06:42:34;69.25;;;19.25;;
35150;SDS011;55720;51.972;4.624;2022-10-31T06:44:59;78.25;;;19.08;;
35150;SDS011;55720;51.972;4.624;2022-10-31T06:47:24;74.13;;;19.33;;
35150;SDS011;55720;51.972;4.624;2022-10-31T06:49:50;138.57;;;24.27;;
35150;SDS011;55720;51.972;4.624;2022-10-31T06:52:15;130.32;;;22.92;;
35150;SDS011;55720;51.972;4.624;2022-10-31T06:54:41;122.18;;;22.45;;
35150;SDS011;55720;51.972;4.624;2022-10-31T06:57:06;97.00;;;21.73;;
35150;SDS011;55720;51.972;4.624;2022-10-31T06:59:31;90.95;;;20.40;;
35150;SDS011;55720;51.972;4.624;2022-10-31T07:01:57;58.78;;;20.05;;
35150;SDS011;55720;51.972;4.624;2022-10-31T07:04:23;76.03;;;21.33;;
35150;SDS011;55720;51.972;4.624;2022-10-31T07:06:50;56.45;;;20.58;;
35150;SDS011;55720;51.972;4.624;2022-10-31T07:09:16;71.80;;;20.67;;
35150;SDS011;55720;51.972;4.624;2022-10-31T07:11:42;85.07;;;22.48;;
35150;SDS011;55720;51.972;4.624;2022-10-31T07:14:07;74.28;;;20.92;;
35150;SDS011;55720;51.972;4.624;2022-10-31T07:16:32;54.55;;;21.15;;
35150;SDS011;55720;51.972;4.624;2022-10-31T07:18:58;67.63;;;24.73;;
35150;SDS011;55720;51.972;4.624;2022-10-31T07:21:23;56.58;;;20.98;;
35150;SDS011;55720;51.972;4.624;2022-10-31T07:23:48;47.45;;;19.98;;
35150;SDS011;55720;51.972;4.624;2022-10-31T07:26:17;44.83;;;20.55;;
35150;SDS011;55720;51.972;4.624;2022-10-31T07:28:42;58.25;;;22.35;;
35150;SDS011;55720;51.972;4.624;2022-10-31T07:31:07;65.47;;;22.88;;
35150;SDS011;55720;51.972;4.624;2022-10-31T07:33:33;66.25;;;23.08;;
35150;SDS011;55720;51.972;4.624;2022-10-31T07:35:58;62.92;;;23.45;;
35150;SDS011;55720;51.972;4.624;2022-10-31T07:38:24;58.33;;;22.10;;
35150;SDS011;55720;51.972;4.624;2022-10-31T07:40:50;74.95;;;24.83;;
35150;SDS011;55720;51.972;4.624;2022-10-31T07:43:18;51.20;;;22.08;;
35150;SDS011;55720;51.972;4.624;2022-10-31T07:45:43;53.22;;;22.23;;
35150;SDS011;55720;51.972;4.624;2022-10-31T07:48:13;47.40;;;22.58;;
35150;SDS011;55720;51.972;4.624;2022-10-31T07:50:38;78.93;;;24.23;;
35150;SDS011;55720;51.972;4.624;2022-10-31T07:53:06;76.05;;;24.15;;
35150;SDS011;55720;51.972;4.624;2022-10-31T07:55:33;57.58;;;23.52;;
35150;SDS011;55720;51.972;4.624;2022-10-31T07:57:59;73.90;;;24.33;;
35150;SDS011;55720;51.972;4.624;2022-10-31T08:00:26;60.75;;;22.95;;
35150;SDS011;55720;51.972;4.624;2022-10-31T08:02:58;60.03;;;23.40;;
35150;SDS011;55720;51.972;4.624;2022-10-31T08:05:24;64.60;;;22.88;;
35150;SDS011;55720;51.972;4.624;2022-10-31T08:07:50;78.70;;;24.80;;
35150;SDS011;55720;51.972;4.624;2022-10-31T08:10:15;76.07;;;24.85;;
35150;SDS011;55720;51.972;4.624;2022-10-31T08:12:40;54.47;;;25.27;;
35150;SDS011;55720;51.972;4.624;2022-10-31T08:15:06;60.67;;;24.92;;
35150;SDS011;55720;51.972;4.624;2022-10-31T08:17:34;58.17;;;24.77;;
35150;SDS011;55720;51.972;4.624;2022-10-31T08:20:00;66.85;;;26.90;;
35150;SDS011;55720;51.972;4.624;2022-10-31T08:22:26;60.67;;;26.17;;
35150;SDS011;55720;51.972;4.624;2022-10-31T08:24:51;70.95;;;25.85;;
35150;SDS011;55720;51.972;4.624;2022-10-31T08:27:16;67.53;;;28.50;;
35150;SDS011;55720;51.972;4.624;2022-10-31T08:29:42;74.72;;;29.05;;
35150;SDS011;55720;51.972;4.624;2022-10-31T08:32:07;72.82;;;28.85;;
35150;SDS011;55720;51.972;4.624;2022-10-31T08:34:32;81.30;;;30.95;;
35150;SDS011;55720;51.972;4.624;2022-10-31T08:36:58;72.50;;;31.13;;
35150;SDS011;55720;51.972;4.624;2022-10-31T08:39:23;81.40;;;33.03;;
35150;SDS011;55720;51.972;4.624;2022-10-31T08:41:48;77.20;;;32.13;;
35150;SDS011;55720;51.972;4.624;2022-10-31T08:44:15;76.55;;;32.33;;
35150;SDS011;55720;51.972;4.624;2022-10-31T08:46:40;79.43;;;32.83;;
35150;SDS011;55720;51.972;4.624;2022-10-31T08:49:06;81.85;;;33.75;;
35150;SDS011;55720;51.972;4.624;2022-10-31T08:51:31;78.45;;;33.97;;
35150;SDS011;55720;51.972;4.624;2022-10-31T08:53:57;82.25;;;34.05;;
35150;SDS011;55720;51.972;4.624;2022-10-31T08:56:22;79.85;;;33.00;;
35150;SDS011;55720;51.972;4.624;2022-10-31T08:58:48;74.55;;;33.15;;
35150;SDS011;55720;51.972;4.624;2022-10-31T09:01:13;74.63;;;33.10;;
35150;SDS011;55720;51.972;4.624;2022-10-31T09:03:39;77.65;;;33.90;;
35150;SDS011;55720;51.972;4.624;2022-10-31T09:06:04;75.70;;;32.25;;
35150;SDS011;55720;51.972;4.624;2022-10-31T09:08:33;69.07;;;32.53;;
35150;SDS011;55720;51.972;4.624;2022-10-31T09:11:00;69.07;;;31.05;;
35150;SDS011;55720;51.972;4.624;2022-10-31T09:13:26;74.53;;;32.08;;
35150;SDS011;55720;51.972;4.624;2022-10-31T09:15:51;65.05;;;30.90;;
35150;SDS011;55720;51.972;4.624;2022-10-31T09:18:18;62.00;;;28.23;;
35150;SDS011;55720;51.972;4.624;2022-10-31T09:20:46;55.80;;;28.02;;
35150;SDS011;55720;51.972;4.624;2022-10-31T09:23:13;56.30;;;27.80;;
35150;SDS011;55720;51.972;4.624;2022-10-31T09:25:43;52.65;;;25.33;;
35150;SDS011;55720;51.972;4.624;2022-10-31T09:28:10;52.08;;;24.70;;
35150;SDS011;55720;51.972;4.624;2022-10-31T09:30:36;41.80;;;23.30;;
35150;SDS011;55720;51.972;4.624;2022-10-31T09:33:03;39.20;;;21.17;;
35150;SDS011;55720;51.972;4.624;2022-10-31T09:35:30;36.20;;;20.95;;
35150;SDS011;55720;51.972;4.624;2022-10-31T09:40:30;35.90;;;19.88;;
35150;SDS011;55720;51.972;4.624;2022-10-31T09:51:00;27.75;;;18.33;;
35150;SDS011;55720;51.972;4.624;2022-10-31T09:53:33;33.92;;;19.38;;
35150;SDS011;55720;51.972;4.624;2022-10-31T09:56:00;30.73;;;17.83;;
35150;SDS011;55720;51.972;4.624;2022-10-31T09:58:30;31.58;;;17.35;;
35150;SDS011;55720;51.972;4.624;2022-10-31T10:01:01;27.63;;;17.58;;
35150;SDS011;55720;51.972;4.624;2022-10-31T10:03:33;27.65;;;17.77;;
35150;SDS011;55720;51.972;4.624;2022-10-31T10:06:18;27.35;;;16.58;;
35150;SDS011;55720;51.972;4.624;2022-10-31T10:08:47;29.90;;;16.45;;
35150;SDS011;55720;51.972;4.624;2022-10-31T10:21:43;27.65;;;16.60;;
35150;SDS011;55720;51.972;4.624;2022-10-31T10:29:52;24.45;;;15.52;;
35150;SDS011;55720;51.972;4.624;2022-10-31T10:32:43;28.00;;;16.55;;
35150;SDS011;55720;51.972;4.624;2022-10-31T10:37:38;22.70;;;13.35;;
35150;SDS011;55720;51.972;4.624;2022-10-31T10:40:16;21.75;;;13.77;;
35150;SDS011;55720;51.972;4.624;2022-10-31T10:42:50;20.13;;;13.02;;
35150;SDS011;55720;51.972;4.624;2022-10-31T10:45:42;27.90;;;14.65;;
35150;SDS011;55720;51.972;4.624;2022-10-31T10:48:43;27.48;;;14.18;;
35150;SDS011;55720;51.972;4.624;2022-10-31T10:51:37;28.00;;;14.57;;
35150;SDS011;55720;51.972;4.624;2022-10-31T10:54:11;25.90;;;13.82;;
35150;SDS011;55720;51.972;4.624;2022-10-31T10:59:25;27.10;;;15.38;;
35150;SDS011;55720;51.972;4.624;2022-10-31T11:01:51;22.73;;;14.25;;
35150;SDS011;55720;51.972;4.624;2022-10-31T11:04:33;26.90;;;14.50;;
35150;SDS011;55720;51.972;4.624;2022-10-31T11:07:07;24.45;;;14.18;;
35150;SDS011;55720;51.972;4.624;2022-10-31T11:09:34;24.75;;;14.85;;
35150;SDS011;55720;51.972;4.624;2022-10-31T11:12:06;21.85;;;13.75;;
35150;SDS011;55720;51.972;4.624;2022-10-31T11:14:53;23.85;;;14.52;;
35150;SDS011;55720;51.972;4.624;2022-10-31T11:17:34;25.33;;;14.38;;
35150;SDS011;55720;51.972;4.624;2022-10-31T11:20:05;24.60;;;14.25;;
35150;SDS011;55720;51.972;4.624;2022-10-31T11:22:36;23.63;;;14.80;;
35150;SDS011;55720;51.972;4.624;2022-10-31T11:25:16;31.13;;;15.05;;
35150;SDS011;55720;51.972;4.624;2022-10-31T11:27:45;24.40;;;14.40;;
35150;SDS011;55720;51.972;4.624;2022-10-31T11:30:12;22.85;;;14.55;;
35150;SDS011;55720;51.972;4.624;2022-10-31T11:32:42;26.20;;;15.05;;
35150;SDS011;55720;51.972;4.624;2022-10-31T11:35:14;27.27;;;15.05;;
35150;SDS011;55720;51.972;4.624;2022-10-31T11:37:43;24.98;;;14.38;;
35150;SDS011;55720;51.972;4.624;2022-10-31T11:40:17;29.40;;;15.25;;
35150;SDS011;55720;51.972;4.624;2022-10-31T11:42:45;29.73;;;14.98;;
35150;SDS011;55720;51.972;4.624;2022-10-31T11:45:16;20.60;;;13.75;;
35150;SDS011;55720;51.972;4.624;2022-10-31T11:47:49;23.55;;;14.88;;
35150;SDS011;55720;51.972;4.624;2022-10-31T11:50:22;24.83;;;14.98;;
35150;SDS011;55720;51.972;4.624;2022-10-31T11:52:50;22.40;;;13.63;;
35150;SDS011;55720;51.972;4.624;2022-10-31T11:55:38;26.05;;;14.43;;
35150;SDS011;55720;51.972;4.624;2022-10-31T11:58:04;20.63;;;13.68;;
35150;SDS011;55720;51.972;4.624;2022-10-31T12:00:48;27.00;;;14.65;;
35150;SDS011;55720;51.972;4.624;2022-10-31T12:06:07;29.52;;;15.35;;
35150;SDS011;55720;51.972;4.624;2022-10-31T12:08:38;28.50;;;14.30;;
35150;SDS011;55720;51.972;4.624;2022-10-31T12:13:59;23.60;;;13.63;;
35150;SDS011;55720;51.972;4.624;2022-10-31T12:16:55;23.67;;;14.18;;
35150;SDS011;55720;51.972;4.624;2022-10-31T12:19:51;27.63;;;14.00;;
35150;SDS011;55720;51.972;4.624;2022-10-31T12:22:35;28.63;;;14.23;;
35150;SDS011;55720;51.972;4.624;2022-10-31T12:44:05;27.95;;;15.10;;
35150;SDS011;55720;51.972;4.624;2022-10-31T12:52:29;32.25;;;17.65;;
35150;SDS011;55720;51.972;4.624;2022-10-31T12:57:56;29.98;;;16.42;;
35150;SDS011;55720;51.972;4.624;2022-10-31T13:00:35;36.47;;;18.63;;
35150;SDS011;55720;51.972;4.624;2022-10-31T13:05:34;40.38;;;19.40;;
35150;SDS011;55720;51.972;4.624;2022-10-31T13:10:52;39.72;;;20.00;;
35150;SDS011;55720;51.972;4.624;2022-10-31T13:16:25;42.70;;;22.00;;
35150;SDS011;55720;51.972;4.624;2022-10-31T13:18:57;41.13;;;23.23;;
35150;SDS011;55720;51.972;4.624;2022-10-31T13:21:37;44.88;;;22.92;;
35150;SDS011;55720;51.972;4.624;2022-10-31T13:24:10;41.97;;;22.55;;
35150;SDS011;55720;51.972;4.624;2022-10-31T13:26:46;46.33;;;23.17;;
35150;SDS011;55720;51.972;4.624;2022-10-31T13:29:29;44.97;;;22.63;;
35150;SDS011;55720;51.972;4.624;2022-10-31T13:31:55;44.45;;;22.92;;
35150;SDS011;55720;51.972;4.624;2022-10-31T13:34:23;45.35;;;23.75;;
35150;SDS011;55720;51.972;4.624;2022-10-31T13:42:23;51.60;;;25.15;;
35150;SDS011;55720;51.972;4.624;2022-10-31T13:44:50;52.90;;;25.23;;
35150;SDS011;55720;51.972;4.624;2022-10-31T13:49:50;52.80;;;26.00;;
35150;SDS011;55720;51.972;4.624;2022-10-31T13:52:21;50.08;;;24.42;;
35150;SDS011;55720;51.972;4.624;2022-10-31T13:54:49;55.38;;;25.92;;
35150;SDS011;55720;51.972;4.624;2022-10-31T13:57:41;50.53;;;24.80;;
35150;SDS011;55720;51.972;4.624;2022-10-31T14:00:26;45.90;;;24.00;;
35150;SDS011;55720;51.972;4.624;2022-10-31T14:02:52;48.25;;;25.20;;
35150;SDS011;55720;51.972;4.624;2022-10-31T14:07:46;50.50;;;24.65;;
35150;SDS011;55720;51.972;4.624;2022-10-31T14:13:08;42.88;;;23.83;;
35150;SDS011;55720;51.972;4.624;2022-10-31T14:15:51;41.50;;;23.27;;
35150;SDS011;55720;51.972;4.624;2022-10-31T14:18:22;53.47;;;24.45;;
35150;SDS011;55720;51.972;4.624;2022-10-31T14:20:50;45.47;;;23.60;;
35150;SDS011;55720;51.972;4.624;2022-10-31T14:28:46;50.47;;;24.90;;
35150;SDS011;55720;51.972;4.624;2022-10-31T14:34:01;51.03;;;26.33;;
35150;SDS011;55720;51.972;4.624;2022-10-31T14:39:18;54.05;;;26.05;;
35150;SDS011;55720;51.972;4.624;2022-10-31T14:47:13;50.75;;;26.10;;
35150;SDS011;55720;51.972;4.624;2022-10-31T14:52:18;58.28;;;27.10;;
35150;SDS011;55720;51.972;4.624;2022-10-31T14:54:46;57.30;;;28.25;;
35150;SDS011;55720;51.972;4.624;2022-10-31T14:57:32;49.80;;;27.10;;
35150;SDS011;55720;51.972;4.624;2022-10-31T15:00:06;50.22;;;26.38;;
35150;SDS011;55720;51.972;4.624;2022-10-31T15:05:14;53.85;;;26.98;;
35150;SDS011;55720;51.972;4.624;2022-10-31T15:07:54;48.55;;;26.35;;
35150;SDS011;55720;51.972;4.624;2022-10-31T15:10:22;54.65;;;25.98;;
35150;SDS011;55720;51.972;4.624;2022-10-31T15:12:50;58.55;;;26.88;;
35150;SDS011;55720;51.972;4.624;2022-10-31T15:17:55;54.85;;;26.58;;
35150;SDS011;55720;51.972;4.624;2022-10-31T15:20:24;50.47;;;26.83;;
35150;SDS011;55720;51.972;4.624;2022-10-31T15:22:57;47.42;;;24.55;;
35150;SDS011;55720;51.972;4.624;2022-10-31T15:25:26;55.92;;;25.85;;
35150;SDS011;55720;51.972;4.624;2022-10-31T15:27:55;50.85;;;25.27;;
35150;SDS011;55720;51.972;4.624;2022-10-31T15:30:21;55.17;;;25.27;;
35150;SDS011;55720;51.972;4.624;2022-10-31T15:32:49;48.83;;;24.65;;
35150;SDS011;55720;51.972;4.624;2022-10-31T15:35:22;52.85;;;25.27;;
35150;SDS011;55720;51.972;4.624;2022-10-31T15:37:52;54.33;;;27.30;;
35150;SDS011;55720;51.972;4.624;2022-10-31T15:40:18;49.75;;;25.02;;
35150;SDS011;55720;51.972;4.624;2022-10-31T15:42:56;50.30;;;25.10;;
35150;SDS011;55720;51.972;4.624;2022-10-31T15:45:23;54.30;;;26.00;;
35150;SDS011;55720;51.972;4.624;2022-10-31T15:47:54;54.65;;;25.98;;
35150;SDS011;55720;51.972;4.624;2022-10-31T15:50:24;55.83;;;26.85;;
35150;SDS011;55720;51.972;4.624;2022-10-31T15:52:55;49.78;;;24.48;;
35150;SDS011;55720;51.972;4.624;2022-10-31T15:55:22;61.28;;;25.77;;
35150;SDS011;55720;51.972;4.624;2022-10-31T15:58:11;55.00;;;25.88;;
35150;SDS011;55720;51.972;4.624;2022-10-31T16:00:37;52.72;;;25.40;;
35150;SDS011;55720;51.972;4.624;2022-10-31T16:05:38;55.72;;;26.20;;
35150;SDS011;55720;51.972;4.624;2022-10-31T16:10:58;61.25;;;28.35;;
35150;SDS011;55720;51.972;4.624;2022-10-31T16:13:40;62.72;;;26.30;;
35150;SDS011;55720;51.972;4.624;2022-10-31T16:16:16;58.22;;;27.33;;
35150;SDS011;55720;51.972;4.624;2022-10-31T16:18:45;56.13;;;27.52;;
35150;SDS011;55720;51.972;4.624;2022-10-31T16:21:11;59.10;;;27.40;;
35150;SDS011;55720;51.972;4.624;2022-10-31T16:23:38;54.15;;;26.33;;
35150;SDS011;55720;51.972;4.624;2022-10-31T16:26:10;62.20;;;27.15;;
35150;SDS011;55720;51.972;4.624;2022-10-31T16:28:49;53.22;;;26.15;;
35150;SDS011;55720;51.972;4.624;2022-10-31T16:31:25;43.10;;;19.27;;
35150;SDS011;55720;51.972;4.624;2022-10-31T16:34:01;52.47;;;25.70;;
35150;SDS011;55720;51.972;4.624;2022-10-31T16:38:57;55.95;;;26.27;;
35150;SDS011;55720;51.972;4.624;2022-10-31T16:41:24;56.72;;;25.90;;
35150;SDS011;55720;51.972;4.624;2022-10-31T16:43:50;54.08;;;25.88;;
35150;SDS011;55720;51.972;4.624;2022-10-31T16:46:23;54.80;;;25.60;;
35150;SDS011;55720;51.972;4.624;2022-10-31T16:48:50;47.10;;;24.50;;
35150;SDS011;55720;51.972;4.624;2022-10-31T16:51:17;43.58;;;22.67;;
35150;SDS011;55720;51.972;4.624;2022-10-31T16:53:42;45.97;;;22.98;;
35150;SDS011;55720;51.972;4.624;2022-10-31T16:56:12;50.30;;;23.42;;
35150;SDS011;55720;51.972;4.624;2022-10-31T16:58:41;48.28;;;22.00;;
35150;SDS011;55720;51.972;4.624;2022-10-31T17:01:06;46.25;;;21.45;;
35150;SDS011;55720;51.972;4.624;2022-10-31T17:03:32;48.10;;;21.80;;
35150;SDS011;55720;51.972;4.624;2022-10-31T17:05:58;45.13;;;21.58;;
35150;SDS011;55720;51.972;4.624;2022-10-31T17:08:23;45.10;;;20.80;;
35150;SDS011;55720;51.972;4.624;2022-10-31T17:10:53;42.83;;;21.58;;
35150;SDS011;55720;51.972;4.624;2022-10-31T17:13:21;36.75;;;20.10;;
35150;SDS011;55720;51.972;4.624;2022-10-31T17:15:51;43.75;;;20.30;;
35150;SDS011;55720;51.972;4.624;2022-10-31T17:18:18;42.83;;;21.98;;
35150;SDS011;55720;51.972;4.624;2022-10-31T17:20:44;38.60;;;20.33;;
35150;SDS011;55720;51.972;4.624;2022-10-31T17:23:10;42.83;;;20.52;;